Time;durP1;ratioP1;P1;durP2;ratioP2;P2;SDS_P1;SDS_P2;PMS_P1;PMS_P2;Temp;Humidity;BMP_temperature;BMP_pressure;BME280_temperature;BME280_humidity;BME280_pressure;Samples;Min_cycle;Max_cycle;Signal;HPM_P1;HPM_P2
2022/05/15 00:01:47;;;;;;;;;;;15.80;99.90;;;;;;5094039;28;19957;-77
2022/05/15 00:04:13;;;;;;;;;;;15.80;99.90;;;;;;5093967;28;20297;-77
2022/05/15 00:06:38;;;;;;;;;;;15.80;99.90;;;;;;5093584;28;19992;-77
2022/05/15 00:09:04;;;;;;;;;;;15.70;99.90;;;;;;5093460;28;19931;-79
2022/05/15 00:11:29;;;;;;;;;;;15.70;99.90;;;;;;5093649;28;19956;-77
2022/05/15 00:13:57;;;;;;;;;;;15.60;99.90;;;;;;5093725;28;19957;-78
2022/05/15 00:16:22;;;;;;;;;;;15.60;99.90;;;;;;5093402;28;19914;-78
2022/05/15 00:18:49;;;;;;;;;;;15.70;99.90;;;;;;5093414;28;19912;-77
2022/05/15 00:21:15;;;;;;;;;;;15.70;99.90;;;;;;5092321;28;19904;-77
2022/05/15 00:23:41;;;;;;;;;;;15.60;99.90;;;;;;5093328;28;20268;-77
2022/05/15 00:26:06;;;;;;;;;;;15.60;99.90;;;;;;5093337;28;19904;-77
2022/05/15 00:28:32;;;;;;;;;;;15.60;99.90;;;;;;5093189;28;19937;-78
2022/05/15 00:30:57;;;;;;;;;;;15.60;99.90;;;;;;5093199;28;19915;-77
2022/05/15 00:33:23;;;;;;;;;;;15.60;99.90;;;;;;5093063;28;19918;-78
2022/05/15 00:35:48;;;;;;;;;;;15.50;99.90;;;;;;5093245;28;19904;-77
2022/05/15 00:38:14;;;;;;;;;;;15.40;99.90;;;;;;5092878;28;20343;-76
2022/05/15 00:40:41;;;;;;;;;;;15.50;99.90;;;;;;5092987;28;19949;-77
2022/05/15 00:43:10;;;;;;;;;;;15.50;99.90;;;;;;5091641;28;19969;-77
2022/05/15 00:45:36;;;;;;;;;;;15.40;99.90;;;;;;5092785;28;19904;-77
2022/05/15 00:48:02;;;;;;;;;;;15.40;99.90;;;;;;5091758;28;20416;-77
2022/05/15 00:50:29;;;;;;;;;;;15.30;99.90;;;;;;5092776;28;20424;-77
2022/05/15 00:52:57;;;;;;;;;;;15.30;99.90;;;;;;5091467;28;19914;-77
2022/05/15 00:55:32;;;;;;;;;;;15.40;99.90;;;;;;5091586;28;19904;-77
2022/05/15 00:58:04;;;;;;;;;;;15.40;99.90;;;;;;5092643;28;20252;-78
2022/05/15 01:00:32;;;;;;;;;;;15.40;99.90;;;;;;5091395;28;20002;-78
2022/05/15 01:02:58;;;;;;;;;;;15.40;99.90;;;;;;5092812;28;19904;-78
2022/05/15 01:05:23;;;;;;;;;;;15.50;99.90;;;;;;5092865;28;19911;-78
2022/05/15 01:07:48;;;;;;;;;;;15.40;99.90;;;;;;5092665;28;19912;-78
2022/05/15 01:10:14;;;;;;;;;;;15.50;99.90;;;;;;5092784;28;19908;-77
2022/05/15 01:12:41;;;;;;;;;;;15.50;99.90;;;;;;5091574;28;19915;-77
2022/05/15 01:15:10;;;;;;;;;;;15.50;99.90;;;;;;5092522;28;19904;-78
2022/05/15 01:17:36;;;;;;;;;;;15.50;99.90;;;;;;5092550;28;20343;-78
2022/05/15 01:20:09;;;;;;;;;;;15.50;99.90;;;;;;5092504;28;19918;-78
2022/05/15 01:22:35;;;;;;;;;;;15.50;99.90;;;;;;5091521;28;19922;-82
2022/05/15 01:25:02;;;;;;;;;;;15.50;99.90;;;;;;5092500;28;19904;-77
2022/05/15 01:27:29;;;;;;;;;;;15.50;99.90;;;;;;5092695;28;19936;-78
2022/05/15 01:29:54;;;;;;;;;;;15.50;99.90;;;;;;5095514;28;19904;-77
2022/05/15 01:32:20;;;;;;;;;;;15.50;99.90;;;;;;5096734;28;20657;-78
2022/05/15 01:34:45;;;;;;;;;;;15.50;99.90;;;;;;5095480;28;19908;-77
2022/05/15 01:37:11;;;;;;;;;;;15.60;99.90;;;;;;5096673;28;19912;-79
2022/05/15 01:39:37;;;;;;;;;;;15.50;99.90;;;;;;5096622;28;19912;-78
2022/05/15 01:42:02;;;;;;;;;;;15.50;99.90;;;;;;5096620;28;19908;-79
2022/05/15 01:44:28;;;;;;;;;;;15.50;99.90;;;;;;5096874;28;20331;-77
2022/05/15 01:46:54;;;;;;;;;;;15.40;99.90;;;;;;5096591;28;20007;-78
2022/05/15 01:49:20;;;;;;;;;;;15.40;99.90;;;;;;5095067;28;20363;-80
2022/05/15 01:51:45;;;;;;;;;;;15.40;99.90;;;;;;5096004;28;19931;-78
2022/05/15 01:54:11;;;;;;;;;;;15.30;99.90;;;;;;5096349;28;19908;-77
2022/05/15 01:56:37;;;;;;;;;;;15.30;99.90;;;;;;5096103;28;19904;-78
2022/05/15 01:59:04;;;;;;;;;;;15.10;99.90;;;;;;5096181;28;19919;-77
2022/05/15 02:01:29;;;;;;;;;;;15.10;99.90;;;;;;5096260;28;19904;-79
2022/05/15 02:03:55;;;;;;;;;;;15.00;99.90;;;;;;5094909;28;19904;-78
2022/05/15 02:06:21;;;;;;;;;;;14.90;99.90;;;;;;5095920;28;19904;-78
2022/05/15 02:08:47;;;;;;;;;;;14.90;99.90;;;;;;5095944;28;19947;-77
2022/05/15 02:11:13;;;;;;;;;;;14.80;99.90;;;;;;5095840;28;20418;-77
2022/05/15 02:13:39;;;;;;;;;;;14.80;99.90;;;;;;5095790;28;19904;-77
2022/05/15 02:16:05;;;;;;;;;;;14.70;99.90;;;;;;5095768;28;20252;-79
2022/05/15 02:18:30;;;;;;;;;;;14.60;99.90;;;;;;5095470;28;19951;-77
2022/05/15 02:20:56;;;;;;;;;;;14.60;99.90;;;;;;5095796;28;20354;-77
2022/05/15 02:23:22;;;;;;;;;;;14.60;99.90;;;;;;5094519;28;19927;-77
2022/05/15 02:25:48;;;;;;;;;;;14.50;99.90;;;;;;5094442;28;19932;-77
2022/05/15 02:28:13;;;;;;;;;;;14.40;99.90;;;;;;5095664;28;19914;-77
2022/05/15 02:30:39;;;;;;;;;;;14.30;99.90;;;;;;5095639;28;19908;-77
2022/05/15 02:33:05;;;;;;;;;;;14.30;99.90;;;;;;5095606;28;20339;-76
2022/05/15 02:35:31;;;;;;;;;;;14.30;99.90;;;;;;5095541;28;19911;-76
2022/05/15 02:37:57;;;;;;;;;;;14.20;99.90;;;;;;5095237;28;20254;-76
2022/05/15 02:40:23;;;;;;;;;;;14.10;99.90;;;;;;5092555;28;19908;-77
2022/05/15 02:42:49;;;;;;;;;;;14.10;99.90;;;;;;5094194;28;19904;-77
2022/05/15 02:45:15;;;;;;;;;;;14.10;99.90;;;;;;5095304;28;19908;-77
2022/05/15 02:47:41;;;;;;;;;;;14.00;99.90;;;;;;5095306;28;19927;-76
2022/05/15 02:52:53;;;;;;;;;;;13.90;99.90;;;;;;5095225;28;20274;-77
2022/05/15 02:55:19;;;;;;;;;;;13.90;99.90;;;;;;5094993;28;20335;-77
2022/05/15 02:57:45;;;;;;;;;;;13.80;99.90;;;;;;5094822;28;19908;-77
2022/05/15 03:00:12;;;;;;;;;;;13.80;99.90;;;;;;5094851;28;19916;-77
2022/05/15 03:02:38;;;;;;;;;;;13.70;99.90;;;;;;5094017;28;20396;-77
2022/05/15 03:05:04;;;;;;;;;;;13.70;99.90;;;;;;5094969;28;20264;-78
2022/05/15 03:07:30;;;;;;;;;;;13.70;99.90;;;;;;5094803;28;20300;-76
2022/05/15 03:09:55;;;;;;;;;;;13.60;99.90;;;;;;5094933;28;19911;-76
2022/05/15 03:12:21;;;;;;;;;;;13.60;99.90;;;;;;5093534;28;20270;-77
2022/05/15 03:14:46;;;;;;;;;;;13.50;99.90;;;;;;5093349;28;20002;-78
2022/05/15 03:17:12;;;;;;;;;;;13.40;99.90;;;;;;5094578;28;19958;-77
2022/05/15 03:19:37;;;;;;;;;;;13.40;99.90;;;;;;5094567;28;20370;-77
2022/05/15 03:22:03;;;;;;;;;;;13.50;99.90;;;;;;5093438;28;20408;-77
2022/05/15 03:24:29;;;;;;;;;;;13.30;99.90;;;;;;5094656;28;19908;-77
2022/05/15 03:26:54;;;;;;;;;;;13.30;99.90;;;;;;5092908;28;19904;-77
2022/05/15 03:29:20;;;;;;;;;;;13.30;99.90;;;;;;5093036;28;19947;-77
2022/05/15 03:31:46;;;;;;;;;;;13.30;99.90;;;;;;5094319;28;19903;-77
2022/05/15 03:34:12;;;;;;;;;;;13.30;99.90;;;;;;5094130;28;19915;-76
2022/05/15 03:36:39;;;;;;;;;;;13.20;99.90;;;;;;5094324;28;19915;-77
2022/05/15 03:39:06;;;;;;;;;;;13.20;99.90;;;;;;5092982;28;19912;-78
2022/05/15 03:41:32;;;;;;;;;;;13.20;99.90;;;;;;5094293;28;19970;-77
2022/05/15 03:43:58;;;;;;;;;;;13.20;99.90;;;;;;5094200;28;20019;-76
2022/05/15 03:46:23;;;;;;;;;;;13.20;99.90;;;;;;5093925;28;19944;-77
2022/05/15 03:48:50;;;;;;;;;;;13.20;99.90;;;;;;5092697;28;19958;-77
2022/05/15 03:51:16;;;;;;;;;;;13.20;99.90;;;;;;5093428;28;19924;-78
2022/05/15 03:53:42;;;;;;;;;;;13.30;99.90;;;;;;5093951;28;19908;-76
2022/05/15 03:56:07;;;;;;;;;;;13.30;99.90;;;;;;5092688;28;19987;-77
2022/05/15 03:58:34;;;;;;;;;;;13.30;99.90;;;;;;5092300;28;19915;-78
2022/05/15 04:01:00;;;;;;;;;;;13.30;99.90;;;;;;5093788;28;20363;-77
2022/05/15 04:03:26;;;;;;;;;;;13.40;99.90;;;;;;5093703;28;19906;-77
2022/05/15 04:05:51;;;;;;;;;;;13.30;99.90;;;;;;5093512;28;19999;-77
2022/05/15 04:08:17;;;;;;;;;;;13.40;99.90;;;;;;5092257;28;19999;-77
2022/05/15 04:10:43;;;;;;;;;;;13.40;99.90;;;;;;5093428;28;19976;-77
2022/05/15 04:13:08;;;;;;;;;;;13.50;99.90;;;;;;5093441;28;19908;-77
2022/05/15 04:15:34;;;;;;;;;;;13.50;99.90;;;;;;5092342;28;19926;-77
2022/05/15 04:17:59;;;;;;;;;;;13.50;99.90;;;;;;5093135;28;19946;-77
2022/05/15 04:20:26;;;;;;;;;;;13.50;99.90;;;;;;5092196;28;19957;-78
2022/05/15 04:22:52;;;;;;;;;;;13.50;99.90;;;;;;5093438;28;19911;-78
2022/05/15 04:25:18;;;;;;;;;;;13.60;99.90;;;;;;5093377;28;19904;-78
2022/05/15 04:27:44;;;;;;;;;;;13.60;99.90;;;;;;5093086;28;20351;-77
2022/05/15 04:30:15;;;;;;;;;;;13.60;99.90;;;;;;5093131;28;19908;-77
2022/05/15 04:32:44;;;;;;;;;;;13.60;99.90;;;;;;5093109;28;19904;-78
2022/05/15 04:35:10;;;;;;;;;;;13.60;99.90;;;;;;5093143;28;19911;-78
2022/05/15 04:37:35;;;;;;;;;;;13.70;99.90;;;;;;5093057;28;20362;-79
2022/05/15 04:40:01;;;;;;;;;;;13.70;99.90;;;;;;5093434;28;19951;-81
2022/05/15 04:42:27;;;;;;;;;;;13.80;99.90;;;;;;5091738;28;20003;-79
2022/05/15 04:44:52;;;;;;;;;;;14.00;99.90;;;;;;5094057;28;19904;-79
2022/05/15 04:47:18;;;;;;;;;;;14.20;99.90;;;;;;5096857;28;19904;-77
2022/05/15 04:49:44;;;;;;;;;;;14.20;99.90;;;;;;5091895;28;19904;-76
2022/05/15 04:52:10;;;;;;;;;;;14.30;99.90;;;;;;5092913;28;19922;-76
2022/05/15 04:54:36;;;;;;;;;;;14.50;99.90;;;;;;5091895;28;19938;-76
2022/05/15 04:57:02;;;;;;;;;;;14.50;99.90;;;;;;5093222;28;19912;-77
2022/05/15 04:59:27;;;;;;;;;;;14.50;99.90;;;;;;5093162;28;19912;-77
2022/05/15 05:01:53;;;;;;;;;;;14.60;99.90;;;;;;5091717;28;19904;-77
2022/05/15 05:04:18;;;;;;;;;;;14.80;99.90;;;;;;5092510;28;19912;-77
2022/05/15 05:06:44;;;;;;;;;;;14.90;99.90;;;;;;5092830;28;19943;-77
2022/05/15 05:09:11;;;;;;;;;;;15.00;99.90;;;;;;5091702;28;19904;-77
2022/05/15 05:11:37;;;;;;;;;;;15.10;99.90;;;;;;5091534;28;19904;-77
2022/05/15 05:14:03;;;;;;;;;;;15.00;99.90;;;;;;5093001;28;19904;-77
2022/05/15 05:16:30;;;;;;;;;;;15.10;99.90;;;;;;5091522;28;20391;-76
2022/05/15 05:18:55;;;;;;;;;;;15.20;99.90;;;;;;5091450;28;20343;-78
2022/05/15 05:21:21;;;;;;;;;;;15.30;99.90;;;;;;5093007;28;19911;-78
2022/05/15 05:23:47;;;;;;;;;;;;;;;;;;5092868;28;19953;-77
2022/05/15 05:26:13;;;;;;;;;;;;;;;;;;5092445;28;19914;-77
2022/05/15 05:28:38;;;;;;;;;;;15.80;99.90;;;;;;5092693;28;19915;-79
2022/05/15 05:31:04;;;;;;;;;;;15.90;99.90;;;;;;5092648;28;19900;-77
2022/05/15 05:33:30;;;;;;;;;;;15.90;99.90;;;;;;5092527;28;19954;-77
2022/05/15 05:35:55;;;;;;;;;;;16.00;99.90;;;;;;5091481;28;19900;-80
2022/05/15 05:38:21;;;;;;;;;;;16.10;99.90;;;;;;5092808;28;19908;-79
2022/05/15 05:40:46;;;;;;;;;;;16.10;99.90;;;;;;5092752;28;19903;-77
2022/05/15 05:43:12;;;;;;;;;;;16.20;99.90;;;;;;5092723;28;19900;-77
2022/05/15 05:45:38;;;;;;;;;;;16.20;99.90;;;;;;5092459;28;19910;-77
2022/05/15 05:48:03;;;;;;;;;;;16.40;99.90;;;;;;5092563;28;19904;-77
2022/05/15 05:50:29;;;;;;;;;;;16.50;99.90;;;;;;5092631;28;19923;-78
2022/05/15 05:52:57;;;;;;;;;;;16.60;99.90;;;;;;5092717;28;19993;-78
2022/05/15 05:55:23;;;;;;;;;;;16.80;99.90;;;;;;5092723;28;19996;-79
2022/05/15 05:57:48;;;;;;;;;;;17.00;99.90;;;;;;5092430;28;20351;-78
2022/05/15 06:00:16;;;;;;;;;;;17.10;99.90;;;;;;5092243;28;19923;-80
2022/05/15 06:02:42;;;;;;;;;;;17.20;99.90;;;;;;5092536;28;19904;-79
2022/05/15 06:05:07;;;;;;;;;;;17.40;99.90;;;;;;5092947;28;19911;-78
2022/05/15 06:07:33;;;;;;;;;;;17.50;99.90;;;;;;5092911;28;19911;-80
2022/05/15 06:10:00;;;;;;;;;;;17.60;99.90;;;;;;5092817;28;19916;-80
2022/05/15 06:12:25;;;;;;;;;;;17.80;99.90;;;;;;5093138;28;19908;-78
2022/05/15 06:14:52;;;;;;;;;;;18.00;99.90;;;;;;5096804;28;19930;-76
2022/05/15 06:17:21;;;;;;;;;;;18.10;99.90;;;;;;5098716;28;20336;-82
2022/05/15 06:19:46;;;;;;;;;;;18.40;99.90;;;;;;5097430;28;20355;-79
2022/05/15 06:22:12;;;;;;;;;;;18.30;99.90;;;;;;5097535;28;19957;-82
2022/05/15 06:24:37;;;;;;;;;;;18.70;99.90;;;;;;5097619;28;19904;-82
2022/05/15 06:27:03;;;;;;;;;;;18.90;99.70;;;;;;5097590;28;19904;-85
2022/05/15 06:29:29;;;;;;;;;;;18.90;98.50;;;;;;5096484;28;20001;-90
2022/05/15 06:31:55;;;;;;;;;;;19.10;97.80;;;;;;5096649;28;19904;-81
2022/05/15 06:34:21;;;;;;;;;;;19.30;97.70;;;;;;5096641;28;20304;-81
2022/05/15 06:36:46;;;;;;;;;;;19.50;96.40;;;;;;5097106;28;20380;-85
2022/05/15 06:39:12;;;;;;;;;;;19.70;95.40;;;;;;5097382;28;19954;-84
2022/05/15 06:41:37;;;;;;;;;;;19.80;95.50;;;;;;5100359;28;20351;-84
2022/05/15 06:44:03;;;;;;;;;;;19.90;95.00;;;;;;5096263;28;19906;-87
2022/05/15 06:46:29;;;;;;;;;;;20.00;95.10;;;;;;5096302;28;20003;-83
2022/05/15 06:48:54;;;;;;;;;;;20.20;95.50;;;;;;5096453;28;19958;-83
2022/05/15 06:51:20;;;;;;;;;;;20.40;94.90;;;;;;5096048;28;19923;-80
2022/05/15 06:53:46;;;;;;;;;;;20.50;94.00;;;;;;5095665;28;19910;-82
2022/05/15 06:58:55;;;;;;;;;;;20.90;92.10;;;;;;5095928;28;19966;-76
2022/05/15 07:01:21;;;;;;;;;;;21.20;90.20;;;;;;5094218;28;19907;-84
2022/05/15 07:03:47;;;;;;;;;;;21.30;89.90;;;;;;5095440;28;20488;-81
2022/05/15 07:06:13;;;;;;;;;;;21.50;83.70;;;;;;5095373;28;20574;-80
2022/05/15 07:08:39;;;;;;;;;;;21.50;82.70;;;;;;5095403;28;20317;-79
2022/05/15 07:11:04;;;;;;;;;;;21.60;82.40;;;;;;5095221;28;19908;-83
2022/05/15 07:13:32;;;;;;;;;;;21.70;81.60;;;;;;5095453;28;19986;-81
2022/05/15 07:15:57;;;;;;;;;;;21.90;77.00;;;;;;5095342;28;19959;-85
2022/05/15 07:18:23;;;;;;;;;;;22.00;78.20;;;;;;5095558;28;19955;-84
2022/05/15 07:20:50;;;;;;;;;;;22.10;78.60;;;;;;5095457;28;19919;-89
2022/05/15 07:23:15;;;;;;;;;;;22.30;76.10;;;;;;5096639;28;19904;-88
2022/05/15 07:25:41;;;;;;;;;;;22.40;73.00;;;;;;5095509;28;19904;-86
2022/05/15 07:28:06;;;;;;;;;;;22.50;74.00;;;;;;5097335;28;19908;-85
2022/05/15 07:30:32;;;;;;;;;;;22.60;73.40;;;;;;5096227;28;19904;-75
2022/05/15 07:32:58;;;;;;;;;;;22.70;75.00;;;;;;5095751;28;19986;-91
2022/05/15 07:35:23;;;;;;;;;;;22.80;74.60;;;;;;5094134;28;20461;-91
2022/05/15 07:37:49;;;;;;;;;;;22.90;72.30;;;;;;5095194;28;19914;-93
2022/05/15 07:40:14;;;;;;;;;;;23.00;75.40;;;;;;5095163;28;19920;-94
2022/05/15 07:42:41;;;;;;;;;;;23.10;73.20;;;;;;5095744;28;19904;-79
2022/05/15 07:45:08;;;;;;;;;;;23.30;71.30;;;;;;5099068;28;19907;-93
2022/05/15 07:47:34;;;;;;;;;;;23.30;72.90;;;;;;5095086;28;19904;-80
2022/05/15 07:49:59;;;;;;;;;;;23.40;73.60;;;;;;5095016;28;19907;-85
2022/05/15 07:52:25;;;;;;;;;;;23.50;73.60;;;;;;5094931;28;20385;-84
2022/05/15 07:54:50;;;;;;;;;;;23.50;73.70;;;;;;5093589;28;20358;-84
2022/05/15 07:57:16;;;;;;;;;;;23.60;73.50;;;;;;5095206;28;19904;-84
2022/05/15 07:59:42;;;;;;;;;;;23.70;74.50;;;;;;5094998;28;19919;-80
2022/05/15 08:02:07;;;;;;;;;;;23.80;72.10;;;;;;5094762;28;19911;-83
2022/05/15 08:08:00;;;;;;;;;;;23.90;72.40;;;;;;5094885;28;19904;-87
2022/05/15 08:10:03;;;;;;;;;;;23.90;72.30;;;;;;5094399;28;20041;-83
2022/05/15 08:12:29;;;;;;;;;;;23.90;73.80;;;;;;5093424;28;20397;-85
2022/05/15 08:14:54;;;;;;;;;;;24.00;72.90;;;;;;5093383;28;19900;-85
2022/05/15 08:17:20;;;;;;;;;;;24.00;71.30;;;;;;5094619;28;19904;-88
2022/05/15 08:25:15;;;;;;;;;;;24.10;72.00;;;;;;5095341;28;19956;-88
2022/05/15 08:27:40;;;;;;;;;;;24.20;71.80;;;;;;5094945;28;19904;-84
2022/05/15 08:30:06;;;;;;;;;;;24.30;69.80;;;;;;5094992;28;19997;-86
2022/05/15 08:32:31;;;;;;;;;;;24.30;70.50;;;;;;5095023;28;19904;-85
2022/05/15 08:34:59;;;;;;;;;;;24.30;68.80;;;;;;5094903;28;19911;-85
2022/05/15 08:37:24;;;;;;;;;;;24.40;69.90;;;;;;5093854;28;19957;-86
2022/05/15 08:39:50;;;;;;;;;;;24.40;68.20;;;;;;5095041;28;19924;-85
2022/05/15 08:42:16;;;;;;;;;;;;;;;;;;5095066;28;19904;-85
2022/05/15 08:44:46;;;;;;;;;;;24.60;69.60;;;;;;5094859;28;19949;-85
2022/05/15 08:47:22;;;;;;;;;;;24.80;70.00;;;;;;5094867;28;19904;-85
2022/05/15 08:49:51;;;;;;;;;;;24.80;69.20;;;;;;5093901;28;19938;-90
2022/05/15 08:52:17;;;;;;;;;;;24.90;67.60;;;;;;5094756;28;19919;-86
2022/05/15 08:54:54;;;;;;;;;;;24.80;68.10;;;;;;5094746;28;19903;-86
2022/05/15 08:57:22;;;;;;;;;;;24.70;66.50;;;;;;5094286;28;19929;-82
2022/05/15 08:59:56;;;;;;;;;;;24.60;66.90;;;;;;5093845;28;19915;-81
2022/05/15 09:02:23;;;;;;;;;;;24.60;68.50;;;;;;5093998;28;19904;-81
2022/05/15 09:04:51;;;;;;;;;;;24.70;69.10;;;;;;5092540;28;19943;-80
2022/05/15 09:07:19;;;;;;;;;;;24.80;69.00;;;;;;5093810;28;19926;-83
2022/05/15 09:09:50;;;;;;;;;;;24.80;67.10;;;;;;5093811;28;20363;-84
2022/05/15 09:12:16;;;;;;;;;;;25.00;67.90;;;;;;5094702;28;19982;-83
2022/05/15 09:15:01;;;;;;;;;;;25.00;66.10;;;;;;5094034;28;19904;-84
2022/05/15 09:17:32;;;;;;;;;;;25.10;65.80;;;;;;5093959;28;19907;-85
2022/05/15 09:19:59;;;;;;;;;;;25.20;66.90;;;;;;5092419;28;20354;-87
2022/05/15 09:22:30;;;;;;;;;;;25.30;67.80;;;;;;5093893;28;19934;-84
2022/05/15 09:24:56;;;;;;;;;;;25.30;65.10;;;;;;5094145;28;19977;-82
2022/05/15 09:27:22;;;;;;;;;;;25.40;64.80;;;;;;5093899;28;19929;-82
2022/05/15 09:29:56;;;;;;;;;;;25.40;67.00;;;;;;5093661;28;20007;-88
2022/05/15 09:32:51;;;;;;;;;;;25.40;65.70;;;;;;5093140;28;19904;-81
2022/05/15 09:35:16;;;;;;;;;;;25.40;64.70;;;;;;5088598;28;20007;-80
2022/05/15 09:40:37;;;;;;;;;;;25.50;65.50;;;;;;5095954;28;19923;-81
2022/05/15 09:45:53;;;;;;;;;;;25.60;66.70;;;;;;5093560;28;20480;-78
2022/05/15 09:48:20;;;;;;;;;;;25.80;66.20;;;;;;5092888;28;19904;-80
2022/05/15 09:50:45;;;;;;;;;;;25.80;66.50;;;;;;5096833;28;19922;-82
2022/05/15 09:53:14;;;;;;;;;;;25.80;65.00;;;;;;5096988;28;19903;-85
2022/05/15 09:55:40;;;;;;;;;;;25.90;65.60;;;;;;5096941;28;20335;-83
2022/05/15 09:58:16;;;;;;;;;;;25.90;65.40;;;;;;5096903;28;19904;-84
2022/05/15 10:00:41;;;;;;;;;;;26.00;66.20;;;;;;5097165;28;19908;-81
2022/05/15 10:03:24;;;;;;;;;;;25.90;63.10;;;;;;5096641;28;19919;-82
2022/05/15 10:06:01;;;;;;;;;;;25.90;64.10;;;;;;5096542;28;19904;-80
2022/05/15 10:08:27;;;;;;;;;;;25.90;64.40;;;;;;5096567;28;20641;-83
2022/05/15 10:10:56;;;;;;;;;;;25.90;65.20;;;;;;5096695;28;19935;-81
2022/05/15 10:14:00;;;;;;;;;;;26.10;64.50;;;;;;5096375;28;19957;-86
2022/05/15 10:16:30;;;;;;;;;;;26.10;63.30;;;;;;5074063;28;19905;-78
2022/05/15 10:19:32;;;;;;;;;;;26.10;62.50;;;;;;5073994;28;19920;-80
2022/05/15 10:22:12;;;;;;;;;;;26.30;65.60;;;;;;4989495;28;19928;-84
2022/05/15 10:24:43;;;;;;;;;;;26.40;63.90;;;;;;5085476;28;19965;-82
2022/05/15 10:27:13;;;;;;;;;;;26.40;64.70;;;;;;5095983;28;19906;-82
2022/05/15 10:29:42;;;;;;;;;;;26.50;64.20;;;;;;5095199;28;19908;-78
2022/05/15 10:32:16;;;;;;;;;;;26.60;62.30;;;;;;5094714;28;19926;-81
2022/05/15 10:34:41;;;;;;;;;;;26.60;63.10;;;;;;5095944;28;19951;-82
2022/05/15 10:37:25;;;;;;;;;;;26.50;62.30;;;;;;5095764;28;20302;-80
2022/05/15 10:39:56;;;;;;;;;;;26.50;63.60;;;;;;5095868;28;20393;-79
2022/05/15 10:42:40;;;;;;;;;;;26.50;64.80;;;;;;5095050;28;20006;-79
2022/05/15 10:45:06;;;;;;;;;;;26.60;63.20;;;;;;5096365;28;19957;-85
2022/05/15 10:47:34;;;;;;;;;;;26.80;62.70;;;;;;5096227;28;19904;-84
2022/05/15 10:50:02;;;;;;;;;;;26.90;61.30;;;;;;5095998;28;19911;-80
2022/05/15 10:52:34;;;;;;;;;;;26.90;61.50;;;;;;5095812;28;19938;-83
2022/05/15 10:58:02;;;;;;;;;;;26.80;60.00;;;;;;5095687;28;20278;-82
2022/05/15 11:00:37;;;;;;;;;;;26.70;61.40;;;;;;5094750;28;19912;-79
2022/05/15 11:03:05;;;;;;;;;;;26.70;60.00;;;;;;5095770;28;19911;-83
2022/05/15 11:05:33;;;;;;;;;;;26.70;61.90;;;;;;5095600;28;19951;-80
2022/05/15 11:08:06;;;;;;;;;;;26.80;62.70;;;;;;5095400;28;19904;-81
2022/05/15 11:10:37;;;;;;;;;;;26.70;61.80;;;;;;5095453;28;19930;-80
2022/05/15 11:13:11;;;;;;;;;;;26.70;60.50;;;;;;5094267;28;19904;-81
2022/05/15 11:15:43;;;;;;;;;;;26.70;62.00;;;;;;5095551;28;19908;-81
2022/05/15 11:18:11;;;;;;;;;;;26.60;62.10;;;;;;5095174;28;19957;-79
2022/05/15 11:20:41;;;;;;;;;;;26.70;63.70;;;;;;5095183;28;19914;-81
2022/05/15 11:23:14;;;;;;;;;;;26.70;61.40;;;;;;5095303;28;19939;-82
2022/05/15 11:25:40;;;;;;;;;;;;;;;;;;5095212;28;19990;-85
2022/05/15 11:28:09;;;;;;;;;;;26.40;59.00;;;;;;5095245;28;19989;-83
2022/05/15 11:30:38;;;;;;;;;;;26.40;61.80;;;;;;5094590;28;20397;-86
2022/05/15 11:33:04;;;;;;;;;;;26.60;62.90;;;;;;5095698;28;19944;-84
2022/05/15 11:35:33;;;;;;;;;;;26.80;60.80;;;;;;5095407;28;19951;-80
2022/05/15 11:37:58;;;;;;;;;;;26.90;61.90;;;;;;5095133;28;20339;-85
2022/05/15 11:40:29;;;;;;;;;;;27.00;62.20;;;;;;5094779;28;19918;-79
2022/05/15 11:42:55;;;;;;;;;;;27.20;61.60;;;;;;5094346;28;19904;-82
2022/05/15 11:45:30;;;;;;;;;;;27.40;61.40;;;;;;5094445;28;19900;-79
2022/05/15 11:48:01;;;;;;;;;;;27.50;60.30;;;;;;5094410;28;20403;-80
2022/05/15 11:50:31;;;;;;;;;;;27.70;61.20;;;;;;5094456;28;19911;-79
2022/05/15 11:52:56;;;;;;;;;;;27.80;59.80;;;;;;5094957;28;19908;-85
2022/05/15 11:55:41;;;;;;;;;;;27.80;60.30;;;;;;5093485;28;20363;-86
2022/05/15 11:58:26;;;;;;;;;;;28.00;61.50;;;;;;5094427;28;20389;-79
2022/05/15 12:01:18;;;;;;;;;;;27.90;58.60;;;;;;5094275;28;19948;-80
2022/05/15 12:03:55;;;;;;;;;;;27.80;57.10;;;;;;5091056;28;19990;-81
2022/05/15 12:06:23;;;;;;;;;;;27.70;57.20;;;;;;5092995;28;20262;-79
2022/05/15 12:08:50;;;;;;;;;;;27.60;56.00;;;;;;5093080;28;19930;-80
2022/05/15 12:11:19;;;;;;;;;;;27.30;56.60;;;;;;5094615;28;19904;-87
2022/05/15 12:13:45;;;;;;;;;;;27.40;58.70;;;;;;5093928;28;19911;-81
2022/05/15 12:16:14;;;;;;;;;;;27.40;60.10;;;;;;5094492;28;20262;-78
2022/05/15 12:18:40;;;;;;;;;;;27.50;59.00;;;;;;5093249;28;19908;-79
2022/05/15 12:21:07;;;;;;;;;;;27.70;60.30;;;;;;5094500;28;19908;-80
2022/05/15 12:23:34;;;;;;;;;;;27.90;61.20;;;;;;5094392;28;19911;-83
2022/05/15 12:25:59;;;;;;;;;;;28.10;60.20;;;;;;5094196;28;20422;-79
2022/05/15 12:31:15;;;;;;;;;;;28.00;57.30;;;;;;5094175;28;19957;-82
2022/05/15 12:33:42;;;;;;;;;;;28.10;57.40;;;;;;5094171;28;19911;-82
2022/05/15 12:36:15;;;;;;;;;;;28.10;56.90;;;;;;5094049;28;19912;-83
2022/05/15 12:38:51;;;;;;;;;;;28.00;55.50;;;;;;5093815;28;20339;-81
2022/05/15 12:41:36;;;;;;;;;;;27.80;57.20;;;;;;5094304;28;19912;-82
2022/05/15 12:44:03;;;;;;;;;;;27.70;57.50;;;;;;5093700;28;19939;-78
2022/05/15 12:46:29;;;;;;;;;;;27.70;57.80;;;;;;5094052;28;19911;-78
2022/05/15 12:48:54;;;;;;;;;;;27.70;58.30;;;;;;5093421;28;20270;-80
2022/05/15 12:51:26;;;;;;;;;;;27.60;58.10;;;;;;5093315;28;19974;-86
2022/05/15 12:53:51;;;;;;;;;;;27.70;58.20;;;;;;5093745;28;19908;-86
2022/05/15 12:56:20;;;;;;;;;;;27.80;60.10;;;;;;5092477;28;19931;-81
2022/05/15 12:58:50;;;;;;;;;;;27.80;59.00;;;;;;5092063;28;19912;-80
2022/05/15 13:01:16;;;;;;;;;;;27.80;58.30;;;;;;5093540;28;19904;-85
2022/05/15 13:03:50;;;;;;;;;;;27.90;57.40;;;;;;5091997;28;20417;-79
2022/05/15 13:06:18;;;;;;;;;;;28.10;58.00;;;;;;5093072;28;19904;-86
2022/05/15 13:08:51;;;;;;;;;;;28.10;56.80;;;;;;5093256;28;19927;-84
2022/05/15 13:11:19;;;;;;;;;;;28.10;58.30;;;;;;5093260;28;20002;-82
2022/05/15 13:13:45;;;;;;;;;;;28.20;57.50;;;;;;5093452;28;19904;-87
2022/05/15 13:16:16;;;;;;;;;;;28.20;56.40;;;;;;5093156;28;19947;-86
2022/05/15 13:18:43;;;;;;;;;;;28.20;57.90;;;;;;5093230;28;19911;-82
2022/05/15 13:21:10;;;;;;;;;;;28.20;56.80;;;;;;5093263;28;19977;-81
2022/05/15 13:23:37;;;;;;;;;;;28.10;56.00;;;;;;5092352;28;19908;-83
2022/05/15 13:26:03;;;;;;;;;;;28.00;56.10;;;;;;5093053;28;19915;-81
2022/05/15 13:28:31;;;;;;;;;;;28.00;57.10;;;;;;5091739;28;19904;-81
2022/05/15 13:30:57;;;;;;;;;;;28.00;57.10;;;;;;5092990;28;19904;-80
2022/05/15 13:33:26;;;;;;;;;;;27.90;55.70;;;;;;5092966;28;20376;-84
2022/05/15 13:35:55;;;;;;;;;;;27.90;56.10;;;;;;5093152;28;19904;-87
2022/05/15 13:38:24;;;;;;;;;;;27.90;55.20;;;;;;5092643;28;19904;-79
2022/05/15 13:43:48;;;;;;;;;;;27.80;55.90;;;;;;5093063;28;19957;-79
2022/05/15 13:46:20;;;;;;;;;;;27.80;55.50;;;;;;5092700;28;19911;-79
2022/05/15 13:48:57;;;;;;;;;;;27.90;57.40;;;;;;5091453;28;19911;-80
2022/05/15 13:51:41;;;;;;;;;;;27.90;55.60;;;;;;5092619;28;20362;-84
2022/05/15 13:54:08;;;;;;;;;;;;;;;;;;5092888;28;19903;-87
2022/05/15 13:56:34;;;;;;;;;;;;;;;;;;5092633;28;19905;-79
2022/05/15 13:59:00;;;;;;;;;;;;;;;;;;5092888;28;19934;-84
2022/05/15 14:01:26;;;;;;;;;;;27.50;75.20;;;;;;5091568;28;20390;-80
2022/05/15 14:03:52;;;;;;;;;;;;;;;;;;5093094;28;19910;-79
2022/05/15 14:06:19;;;;;;;;;;;27.80;56.40;;;;;;5091375;28;19904;-86
2022/05/15 14:09:00;;;;;;;;;;;27.80;57.70;;;;;;5092473;28;19960;-80
2022/05/15 14:11:27;;;;;;;;;;;27.90;57.60;;;;;;5092569;28;20365;-80
2022/05/15 14:13:53;;;;;;;;;;;28.00;56.40;;;;;;5091382;28;19982;-83
2022/05/15 14:16:21;;;;;;;;;;;28.10;55.70;;;;;;5092462;28;20004;-80
2022/05/15 14:18:46;;;;;;;;;;;28.10;55.30;;;;;;5092477;28;19995;-81
2022/05/15 14:21:17;;;;;;;;;;;28.10;55.20;;;;;;5092360;28;19943;-78
2022/05/15 14:23:42;;;;;;;;;;;28.00;55.10;;;;;;5092457;28;19900;-83
2022/05/15 14:26:09;;;;;;;;;;;27.80;55.60;;;;;;5092370;28;19904;-86
2022/05/15 14:28:35;;;;;;;;;;;27.60;56.30;;;;;;5090998;28;19904;-86
2022/05/15 14:31:00;;;;;;;;;;;27.40;57.00;;;;;;5091171;28;19904;-86
2022/05/15 14:33:26;;;;;;;;;;;27.40;55.20;;;;;;5092312;28;20266;-79
2022/05/15 14:35:55;;;;;;;;;;;27.40;56.20;;;;;;5092968;28;19982;-80
2022/05/15 14:38:20;;;;;;;;;;;27.50;57.30;;;;;;5095604;28;19912;-79
2022/05/15 14:40:46;;;;;;;;;;;27.60;56.30;;;;;;5095814;28;19916;-81
2022/05/15 14:43:12;;;;;;;;;;;27.60;57.70;;;;;;5095703;28;19915;-80
2022/05/15 14:45:40;;;;;;;;;;;27.60;57.00;;;;;;5094026;28;19904;-81
2022/05/15 14:48:06;;;;;;;;;;;27.60;56.20;;;;;;5095741;28;20271;-78
2022/05/15 14:50:32;;;;;;;;;;;27.70;56.70;;;;;;5095782;28;19911;-79
2022/05/15 14:52:58;;;;;;;;;;;27.70;56.70;;;;;;5095686;28;20371;-79